General Carneiro, Brazil
Current Conditions -  °F | °C
As of 2:00 PM on Thursday 23 Oct 2014 (Local Time) from SBBW Reporting Station
Scattered Clouds Scattered Clouds  
Wind Chill: 84°   Ceiling: Unl
Heat Index: 90°   Visibility: 6mi
Dew Point: 72°   Wind: 3mph
Humidity: 66%   Direction: 60°ENE
Pressure: 29.97"   Gusts: NA
Location:  15.71°S, 52.76°W
Report Text: SBBW 231700Z 06003KT 9999 FEW020 SCT090 29/22 Q1015
Loading
Personal Weather Stations






























Interactive Weather Map
Tropical Storm Tracking
New forecast layout! Learn more

10-Day Weather Forecast

Advertisements
Track Severe Weather on mobile